createdAt,value
2019-05-21T00:02:06.774Z,27.60
2019-05-21T00:04:38.885Z,27.13
2019-05-21T00:07:10.744Z,28.83
2019-05-21T00:09:42.814Z,28.43
2019-05-21T00:12:14.572Z,28.30
2019-05-21T00:14:46.393Z,27.73
2019-05-21T00:17:18.245Z,27.50
2019-05-21T00:19:49.858Z,28.90
2019-05-21T00:22:21.554Z,28.50
2019-05-21T00:24:53.511Z,28.25
2019-05-21T00:27:25.329Z,26.57
2019-05-21T00:30:32.795Z,28.37
2019-05-21T00:33:40.168Z,26.90
2019-05-21T00:36:49.482Z,27.77
2019-05-21T00:39:57.222Z,28.20
2019-05-21T00:42:30.984Z,29.83
2019-05-21T00:45:02.759Z,28.90
2019-05-21T00:47:34.062Z,28.13
2019-05-21T00:50:07.020Z,28.93
2019-05-21T00:52:38.891Z,29.10
2019-05-21T00:55:10.951Z,30.83
2019-05-21T00:57:42.963Z,28.90
2019-05-21T01:00:15.719Z,30.00
2019-05-21T01:02:47.922Z,30.47
2019-05-21T01:05:19.434Z,28.20
2019-05-21T01:07:51.036Z,30.83
2019-05-21T01:10:22.541Z,31.07
2019-05-21T01:12:54.536Z,30.95
2019-05-21T01:15:25.789Z,29.93
2019-05-21T01:17:57.573Z,30.37
2019-05-21T01:20:29.224Z,28.40
2019-05-21T01:23:01.067Z,28.45
2019-05-21T01:25:33.274Z,27.43
2019-05-21T01:28:05.444Z,30.27
2019-05-21T01:30:37.503Z,29.10
2019-05-21T01:33:09.227Z,28.83
2019-05-21T01:35:40.785Z,30.70
2019-05-21T01:38:12.432Z,29.53
2019-05-21T01:40:44.262Z,30.33
2019-05-21T01:43:16.204Z,29.53
2019-05-21T01:45:48.527Z,29.37
2019-05-21T01:48:19.930Z,31.07
2019-05-21T01:50:52.224Z,30.33
2019-05-21T01:53:23.513Z,31.00
2019-05-21T01:55:55.052Z,33.80
2019-05-21T01:58:28.259Z,31.80
2019-05-21T02:00:59.546Z,33.43
2019-05-21T02:03:31.471Z,33.67
2019-05-21T02:06:03.092Z,32.60
2019-05-21T02:08:34.717Z,32.13
2019-05-21T02:11:07.017Z,31.83
2019-05-21T02:13:39.792Z,32.10
2019-05-21T02:16:11.665Z,31.33
2019-05-21T02:18:44.343Z,31.43
2019-05-21T02:21:17.199Z,30.50
2019-05-21T02:23:49.180Z,31.50
2019-05-21T02:26:21.529Z,32.63
2019-05-21T02:28:54.481Z,32.17
2019-05-21T02:31:26.188Z,32.60
2019-05-21T02:33:58.532Z,31.93
2019-05-21T02:36:31.167Z,32.20
2019-05-21T02:39:04.439Z,32.90
2019-05-21T02:41:35.725Z,32.70
2019-05-21T02:44:07.095Z,32.80
2019-05-21T02:46:38.687Z,33.97
2019-05-21T02:49:11.282Z,32.60
2019-05-21T02:51:43.221Z,33.40
2019-05-21T02:54:14.769Z,32.27
2019-05-21T02:56:47.066Z,33.20
2019-05-21T02:59:18.929Z,31.93
2019-05-21T03:01:56.711Z,33.83
2019-05-21T03:04:29.576Z,33.17
2019-05-21T03:07:18.893Z,32.45
2019-05-21T03:09:50.487Z,33.47
2019-05-21T03:12:21.817Z,30.43
2019-05-21T03:14:53.722Z,32.80
2019-05-21T03:17:26.769Z,32.57
2019-05-21T03:19:58.236Z,30.95
2019-05-21T03:22:29.839Z,31.40
2019-05-21T03:25:02.767Z,32.10
2019-05-21T03:27:34.705Z,31.20
2019-05-21T03:30:06.280Z,31.13
2019-05-21T03:32:37.608Z,31.77
2019-05-21T03:35:09.885Z,30.23
2019-05-21T03:37:41.994Z,31.70
2019-05-21T03:40:13.649Z,32.47
2019-05-21T03:42:45.758Z,30.13
2019-05-21T03:45:17.670Z,30.50
2019-05-21T03:47:49.952Z,31.23
2019-05-21T03:50:21.895Z,32.43
2019-05-21T03:52:54.366Z,30.48
2019-05-21T03:55:25.877Z,29.70
2019-05-21T03:57:57.595Z,29.80
2019-05-21T04:00:29.472Z,29.83
2019-05-21T04:03:01.538Z,29.42
2019-05-21T04:05:32.826Z,29.80
2019-05-21T04:08:04.776Z,31.00
2019-05-21T04:10:37.001Z,32.53
2019-05-21T04:13:09.692Z,31.53
2019-05-21T04:16:10.413Z,32.70
2019-05-21T04:19:01.632Z,31.03
2019-05-21T04:21:33.718Z,30.25
2019-05-21T04:24:08.809Z,30.07
2019-05-21T04:26:39.365Z,30.07
2019-05-21T04:29:11.250Z,29.80
2019-05-21T04:31:43.277Z,31.47
2019-05-21T04:34:14.587Z,31.73
2019-05-21T04:36:46.898Z,32.90
2019-05-21T04:39:18.496Z,30.90
2019-05-21T04:41:50.433Z,33.13
2019-05-21T04:44:22.242Z,31.77
2019-05-21T04:46:54.579Z,30.70
2019-05-21T04:49:26.290Z,30.43
2019-05-21T04:51:58.675Z,31.77
2019-05-21T04:54:30.396Z,31.40
2019-05-21T04:57:14.695Z,33.17
2019-05-21T04:59:47.013Z,32.00
2019-05-21T05:02:19.097Z,33.20
2019-05-21T05:04:51.259Z,34.03
2019-05-21T05:07:28.102Z,32.42
2019-05-21T05:09:56.994Z,33.45
2019-05-21T05:12:28.819Z,30.90
2019-05-21T05:15:00.419Z,30.40
2019-05-21T05:17:32.361Z,30.27
2019-05-21T05:20:04.300Z,30.87
2019-05-21T05:22:35.918Z,30.20
2019-05-21T05:25:07.803Z,31.13
2019-05-21T05:27:39.155Z,29.50
2019-05-21T05:30:11.566Z,30.73
2019-05-21T05:32:42.995Z,29.80
2019-05-21T05:35:15.130Z,30.30
2019-05-21T05:37:48.958Z,30.50
2019-05-21T05:40:20.592Z,29.57
2019-05-21T05:42:52.423Z,29.25
2019-05-21T05:45:23.852Z,28.43
2019-05-21T05:47:55.441Z,29.50
2019-05-21T05:50:30.652Z,27.93
2019-05-21T05:53:02.089Z,31.27
2019-05-21T05:55:33.501Z,28.73
2019-05-21T05:58:05.431Z,27.90
2019-05-21T06:00:37.647Z,28.03
2019-05-21T06:03:08.920Z,26.47
2019-05-21T06:05:39.951Z,26.57
2019-05-21T06:08:11.803Z,27.30
2019-05-21T06:10:43.113Z,26.27
2019-05-21T06:13:16.943Z,25.90
2019-05-21T06:15:49.423Z,23.30
2019-05-21T06:18:21.091Z,22.90
2019-05-21T06:20:52.935Z,23.37
2019-05-21T06:23:24.317Z,23.53
2019-05-21T06:25:56.253Z,23.50
2019-05-21T06:28:28.356Z,23.33
2019-05-21T06:31:00.538Z,22.55
2019-05-21T06:33:35.079Z,22.27
2019-05-21T06:36:06.600Z,22.60
2019-05-21T06:38:52.440Z,23.37
2019-05-21T06:41:24.520Z,22.07
2019-05-21T06:43:56.583Z,21.55
2019-05-21T06:46:28.168Z,21.17
2019-05-21T06:48:59.923Z,19.75
2019-05-21T06:51:31.928Z,18.23
2019-05-21T06:54:03.853Z,17.67
2019-05-21T06:56:36.043Z,17.50
2019-05-21T06:59:08.233Z,18.47
2019-05-21T07:01:40.447Z,17.73
2019-05-21T07:04:12.791Z,17.20
2019-05-21T07:06:44.944Z,16.43
2019-05-21T07:09:19.122Z,17.33
2019-05-21T07:11:50.933Z,16.17
2019-05-21T07:14:23.455Z,14.67
2019-05-21T07:16:55.658Z,13.77
2019-05-21T07:19:27.320Z,12.10
2019-05-21T07:22:11.986Z,11.37
2019-05-21T07:24:34.414Z,11.77
2019-05-21T07:27:06.186Z,12.15
2019-05-21T07:29:38.389Z,12.10
2019-05-21T07:32:10.439Z,11.43
2019-05-21T07:34:42.338Z,10.70
2019-05-21T07:37:15.162Z,9.20
2019-05-21T07:39:46.782Z,11.40
2019-05-21T07:42:20.155Z,9.80
2019-05-21T07:44:52.115Z,9.00
2019-05-21T07:47:24.077Z,8.70
2019-05-21T07:49:56.268Z,8.80
2019-05-21T07:52:28.056Z,9.03
2019-05-21T07:55:00.422Z,10.30
2019-05-21T07:57:32.228Z,9.90
2019-05-21T08:00:03.529Z,9.60
2019-05-21T08:02:35.546Z,9.70
2019-05-21T08:05:08.572Z,9.10
2019-05-21T08:07:40.685Z,9.80
2019-05-21T08:10:12.360Z,10.57
2019-05-21T08:12:44.300Z,9.20
2019-05-21T08:15:16.270Z,12.10
2019-05-21T08:17:47.755Z,14.40
2019-05-21T08:20:19.458Z,16.40
2019-05-21T08:22:51.186Z,17.00
2019-05-21T08:25:23.021Z,16.87
2019-05-21T08:27:54.955Z,17.03
2019-05-21T08:30:26.791Z,18.57
2019-05-21T08:32:59.087Z,17.60
2019-05-21T08:35:31.422Z,17.73
2019-05-21T08:38:06.579Z,16.47
2019-05-21T08:40:37.010Z,19.90
2019-05-21T08:43:08.262Z,17.80
2019-05-21T08:45:39.478Z,16.67
2019-05-21T08:48:12.309Z,16.80
2019-05-21T08:50:43.784Z,17.70
2019-05-21T08:53:15.216Z,13.80
2019-05-21T08:55:47.090Z,12.87
2019-05-21T08:58:19.285Z,12.97
2019-05-21T09:00:51.191Z,14.27
2019-05-21T09:03:23.563Z,13.70
2019-05-21T09:05:55.638Z,15.73
2019-05-21T09:08:27.161Z,12.63
2019-05-21T09:10:59.245Z,14.50
2019-05-21T09:13:30.943Z,13.67
2019-05-21T09:16:02.459Z,11.13
2019-05-21T09:18:34.124Z,15.03
2019-05-21T09:21:05.612Z,15.87
2019-05-21T09:23:37.408Z,14.53
2019-05-21T09:26:09.210Z,12.18
2019-05-21T09:28:41.184Z,11.57
2019-05-21T09:31:13.075Z,11.50
2019-05-21T09:33:45.221Z,11.40
2019-05-21T09:36:17.194Z,11.47
2019-05-21T09:38:49.334Z,11.23
2019-05-21T09:41:21.610Z,12.67
2019-05-21T09:43:53.540Z,11.13
2019-05-21T09:46:25.329Z,12.10
2019-05-21T09:48:56.689Z,15.07
2019-05-21T09:51:28.341Z,15.83
2019-05-21T09:53:59.893Z,16.10
2019-05-21T09:56:34.454Z,16.23
2019-05-21T09:59:19.407Z,17.07
2019-05-21T10:01:53.119Z,15.47
2019-05-21T10:04:24.743Z,15.43
2019-05-21T10:06:56.450Z,15.77
2019-05-21T10:09:27.756Z,14.63
2019-05-21T10:11:59.357Z,15.50
2019-05-21T10:14:34.217Z,14.77
2019-05-21T10:17:05.477Z,14.20
2019-05-21T10:19:37.052Z,13.13
2019-05-21T10:22:09.534Z,14.17
2019-05-21T10:24:42.015Z,12.37
2019-05-21T10:27:13.319Z,13.83
2019-05-21T10:29:44.965Z,12.73
2019-05-21T10:32:16.792Z,14.33
2019-05-21T10:34:49.844Z,14.13
2019-05-21T10:37:21.770Z,13.87
2019-05-21T10:39:53.183Z,12.70
2019-05-21T10:42:25.331Z,11.97
2019-05-21T10:44:57.145Z,12.10
2019-05-21T10:47:28.837Z,12.83
2019-05-21T10:50:01.253Z,12.03
2019-05-21T10:52:33.078Z,13.27
2019-05-21T10:55:04.662Z,11.57
2019-05-21T10:57:36.572Z,11.77
2019-05-21T11:00:11.195Z,11.70
2019-05-21T11:02:48.408Z,12.10
2019-05-21T11:05:32.779Z,12.57
2019-05-21T11:08:22.800Z,11.67
2019-05-21T11:10:38.960Z,12.80
2019-05-21T11:13:10.892Z,13.05
2019-05-21T11:15:42.827Z,12.03
2019-05-21T11:18:14.929Z,12.30
2019-05-21T11:20:46.516Z,12.03
2019-05-21T11:23:18.328Z,11.50
2019-05-21T11:25:50.368Z,12.77
2019-05-21T11:28:21.906Z,12.20
2019-05-21T11:30:53.524Z,12.10
2019-05-21T11:33:25.380Z,11.93
2019-05-21T11:35:56.941Z,11.17
2019-05-21T11:38:39.434Z,11.43
2019-05-21T11:41:02.301Z,12.20
2019-05-21T11:43:34.179Z,9.97
2019-05-21T11:46:06.107Z,10.03
2019-05-21T11:48:37.420Z,10.35
2019-05-21T11:51:12.645Z,9.80
2019-05-21T11:53:43.501Z,8.43
2019-05-21T11:56:15.047Z,8.47
2019-05-21T11:58:46.670Z,9.17
2019-05-21T12:01:17.969Z,8.43
2019-05-21T12:03:49.283Z,7.40
2019-05-21T12:06:20.371Z,6.53
2019-05-21T12:08:56.784Z,6.27
2019-05-21T12:11:25.654Z,5.57
2019-05-21T12:13:56.943Z,3.33
2019-05-21T12:16:28.111Z,3.53
2019-05-21T12:18:59.256Z,3.07
2019-05-21T12:21:30.319Z,3.30
2019-05-21T12:24:01.888Z,2.80
2019-05-21T12:26:33.036Z,2.72
2019-05-21T12:29:04.551Z,2.90
2019-05-21T12:31:36.050Z,1.87
2019-05-21T12:34:07.526Z,2.47
2019-05-21T12:36:38.976Z,2.30
2019-05-21T12:39:14.218Z,1.62
2019-05-21T12:41:43.299Z,2.52
2019-05-21T12:44:14.378Z,3.00
2019-05-21T12:46:46.617Z,2.30
2019-05-21T12:49:17.716Z,2.17
2019-05-21T12:51:49.039Z,1.93
2019-05-21T12:54:20.052Z,1.80
2019-05-21T12:56:51.372Z,1.57
2019-05-21T12:59:22.524Z,1.90
2019-05-21T13:01:53.452Z,2.13
2019-05-21T13:04:24.567Z,2.90
2019-05-21T13:06:55.997Z,3.30
2019-05-21T13:09:32.686Z,3.17
2019-05-21T13:11:59.737Z,3.87
2019-05-21T13:14:31.540Z,4.13
2019-05-21T13:17:02.678Z,4.75
2019-05-21T13:19:33.946Z,4.63
2019-05-21T13:22:05.085Z,4.73
2019-05-21T13:24:36.177Z,5.43
2019-05-21T13:27:07.472Z,4.87
2019-05-21T13:29:38.897Z,4.60
2019-05-21T13:32:10.010Z,5.17
2019-05-21T13:34:41.130Z,4.80
2019-05-21T13:37:12.186Z,4.50
2019-05-21T13:39:49.892Z,5.37
2019-05-21T13:42:16.254Z,5.60
2019-05-21T13:44:47.377Z,5.27
2019-05-21T13:47:18.449Z,5.53
2019-05-21T13:49:49.526Z,4.97
2019-05-21T13:52:20.995Z,4.90
2019-05-21T13:54:52.397Z,5.43
2019-05-21T13:57:23.580Z,4.60
2019-05-21T13:59:54.671Z,5.37
2019-05-21T14:02:25.833Z,4.63
2019-05-21T14:04:57.412Z,4.47
2019-05-21T14:07:29.651Z,4.92
2019-05-21T14:10:14.126Z,4.73
2019-05-21T14:12:34.905Z,4.23
2019-05-21T14:15:06.694Z,4.93
2019-05-21T14:17:37.808Z,5.17
2019-05-21T14:20:09.186Z,4.37
2019-05-21T14:22:40.148Z,4.00
2019-05-21T14:25:11.443Z,4.13
2019-05-21T14:27:44.897Z,4.90
2019-05-21T14:30:15.870Z,7.60
2019-05-21T14:32:48.492Z,8.67
2019-05-21T14:35:19.630Z,9.73
2019-05-21T14:37:50.900Z,9.57
2019-05-21T14:40:31.518Z,10.97
2019-05-21T14:43:00.344Z,11.37
2019-05-21T14:45:33.944Z,12.13
2019-05-21T14:48:03.291Z,12.80
2019-05-21T14:50:34.768Z,13.03
2019-05-21T14:53:05.848Z,12.88
2019-05-21T14:55:36.924Z,13.30
2019-05-21T14:58:07.959Z,13.67
2019-05-21T15:00:39.037Z,13.53
2019-05-21T15:03:24.359Z,14.23
2019-05-21T15:05:43.486Z,14.00
2019-05-21T15:08:14.585Z,14.93
2019-05-21T15:10:48.909Z,14.37
2019-05-21T15:13:18.428Z,16.00
2019-05-21T15:15:49.743Z,14.53
2019-05-21T15:18:22.198Z,15.37
2019-05-21T15:21:02.563Z,16.27
2019-05-21T15:23:33.780Z,14.73
2019-05-21T15:26:05.647Z,13.67
2019-05-21T15:28:36.755Z,13.93
2019-05-21T15:31:08.357Z,13.87
2019-05-21T15:33:39.750Z,14.73
2019-05-21T15:36:11.128Z,14.40
2019-05-21T15:38:50.349Z,15.47
2019-05-21T15:41:15.150Z,15.40
2019-05-21T15:43:47.138Z,13.20
2019-05-21T15:46:18.154Z,14.83
2019-05-21T15:48:49.357Z,14.80
2019-05-21T15:51:20.681Z,13.10
2019-05-21T15:53:51.828Z,15.87
2019-05-21T15:56:22.861Z,14.97
2019-05-21T15:58:57.186Z,15.50
2019-05-21T16:01:28.433Z,15.13
2019-05-21T16:03:59.610Z,14.30
2019-05-21T16:06:32.082Z,15.95
2019-05-21T16:09:05.158Z,16.80
2019-05-21T16:11:36.668Z,18.97
2019-05-21T16:14:07.745Z,18.53
2019-05-21T16:16:38.821Z,19.93
2019-05-21T16:19:10.029Z,20.57
2019-05-21T16:21:41.055Z,22.37
2019-05-21T16:24:12.095Z,22.17
2019-05-21T16:26:43.342Z,19.80
2019-05-21T16:29:14.676Z,20.03
2019-05-21T16:31:45.869Z,20.03
2019-05-21T16:34:17.234Z,19.40
2019-05-21T16:36:48.448Z,19.47
2019-05-21T16:39:21.645Z,19.05
2019-05-21T16:41:53.112Z,17.63
2019-05-21T16:44:24.383Z,17.50
2019-05-21T16:46:55.836Z,19.03
2019-05-21T16:49:27.188Z,19.00
2019-05-21T16:51:58.578Z,19.73
2019-05-21T16:54:29.671Z,21.93
2019-05-21T16:57:00.787Z,23.43
2019-05-21T16:59:32.119Z,21.50
2019-05-21T17:02:04.334Z,22.23
2019-05-21T17:04:35.472Z,21.83
2019-05-21T17:07:07.245Z,21.43
2019-05-21T17:09:38.475Z,22.03
2019-05-21T17:12:10.233Z,19.67
2019-05-21T17:14:41.591Z,20.27
2019-05-21T17:17:12.657Z,20.35
2019-05-21T17:19:44.047Z,18.50
2019-05-21T17:22:15.097Z,18.85
2019-05-21T17:24:46.112Z,18.87
2019-05-21T17:27:17.142Z,16.17
2019-05-21T17:29:48.314Z,16.70
2019-05-21T17:32:19.663Z,14.90
2019-05-21T17:34:50.752Z,14.60
2019-05-21T17:37:22.391Z,15.53
2019-05-21T17:39:54.004Z,14.50
2019-05-21T17:42:25.154Z,13.73
2019-05-21T17:44:56.542Z,15.00
2019-05-21T17:47:27.996Z,13.50
2019-05-21T17:49:59.094Z,13.60
2019-05-21T17:52:30.085Z,12.83
2019-05-21T17:55:01.205Z,11.70
2019-05-21T17:57:33.675Z,13.00
2019-05-21T18:00:06.893Z,12.13
2019-05-21T18:02:39.562Z,12.50
2019-05-21T18:05:11.290Z,11.80
2019-05-21T18:07:42.946Z,11.57
2019-05-21T18:10:15.257Z,11.70
2019-05-21T18:12:46.251Z,12.07
2019-05-21T18:15:18.298Z,11.40
2019-05-21T18:17:49.409Z,11.80
2019-05-21T18:20:21.111Z,11.83
2019-05-21T18:22:52.537Z,10.28
2019-05-21T18:25:24.141Z,11.23
2019-05-21T18:27:55.231Z,11.87
2019-05-21T18:30:26.309Z,11.70
2019-05-21T18:32:57.584Z,11.60
2019-05-21T18:35:28.688Z,10.82
2019-05-21T18:38:00.069Z,11.78
2019-05-21T18:40:31.273Z,12.07
2019-05-21T18:43:03.011Z,11.17
2019-05-21T18:45:35.131Z,11.55
2019-05-21T18:48:06.344Z,13.20
2019-05-21T18:50:37.942Z,12.20
2019-05-21T18:53:09.406Z,12.40
2019-05-21T18:55:40.657Z,13.85
2019-05-21T18:58:11.850Z,13.28
2019-05-21T19:00:43.338Z,13.30
2019-05-21T19:03:14.460Z,15.10
2019-05-21T19:05:45.824Z,15.00
2019-05-21T19:08:16.968Z,14.27
2019-05-21T19:10:48.736Z,16.17
2019-05-21T19:13:19.931Z,16.77
2019-05-21T19:15:51.024Z,17.27
2019-05-21T19:18:22.788Z,17.17
2019-05-21T19:20:54.012Z,16.97
2019-05-21T19:23:25.436Z,16.67
2019-05-21T19:25:56.916Z,17.10
2019-05-21T19:28:27.922Z,17.60
2019-05-21T19:30:59.240Z,18.77
2019-05-21T19:33:30.802Z,17.33
2019-05-21T19:36:02.127Z,18.77
2019-05-21T19:38:33.251Z,17.50
2019-05-21T19:41:04.402Z,18.50
2019-05-21T19:43:36.057Z,17.12
2019-05-21T19:46:07.734Z,17.50
2019-05-21T19:48:38.746Z,18.00
2019-05-21T19:51:09.899Z,17.00
2019-05-21T19:53:41.332Z,17.50
2019-05-21T19:56:13.041Z,17.42
2019-05-21T19:58:44.469Z,16.83
2019-05-21T20:01:15.953Z,17.32
2019-05-21T20:03:47.308Z,17.90
2019-05-21T20:06:20.102Z,17.60
2019-05-21T20:08:51.261Z,20.67
2019-05-21T20:11:22.813Z,19.23
2019-05-21T20:13:54.327Z,18.57
2019-05-21T20:16:26.170Z,19.50
2019-05-21T20:18:58.208Z,19.10
2019-05-21T20:21:29.956Z,17.77
2019-05-21T20:24:01.902Z,20.00
2019-05-21T20:26:34.456Z,19.47
2019-05-21T20:29:09.272Z,18.53
2019-05-21T20:31:42.965Z,17.40
2019-05-21T20:34:14.458Z,19.47
2019-05-21T20:36:45.808Z,19.23
2019-05-21T20:39:18.619Z,19.82
2019-05-21T20:41:50.286Z,19.63
2019-05-21T20:44:21.863Z,20.37
2019-05-21T20:46:54.787Z,20.37
2019-05-21T20:49:26.222Z,21.47
2019-05-21T20:51:57.297Z,20.77
2019-05-21T20:54:29.913Z,23.27
2019-05-21T20:57:01.269Z,23.67
2019-05-21T20:59:32.873Z,24.03
2019-05-21T21:02:08.094Z,24.00
2019-05-21T21:04:37.587Z,22.90
2019-05-21T21:07:08.655Z,24.77
2019-05-21T21:09:40.294Z,25.17
2019-05-21T21:12:11.696Z,24.67
2019-05-21T21:14:44.353Z,25.07
2019-05-21T21:17:16.277Z,25.70
2019-05-21T21:19:47.539Z,24.43
2019-05-21T21:22:19.417Z,24.45
2019-05-21T21:24:50.737Z,26.30
2019-05-21T21:27:22.862Z,26.17
2019-05-21T21:29:54.147Z,26.47
2019-05-21T21:32:25.245Z,28.17
2019-05-21T21:34:56.601Z,28.03
2019-05-21T21:37:28.142Z,26.43
2019-05-21T21:40:00.259Z,27.37
2019-05-21T21:42:31.368Z,28.27
2019-05-21T21:45:02.390Z,28.07
2019-05-21T21:47:33.687Z,26.27
2019-05-21T21:50:06.556Z,26.23
2019-05-21T21:52:38.248Z,26.40
2019-05-21T21:55:09.417Z,24.80
2019-05-21T21:57:40.713Z,24.73
2019-05-21T22:00:39.614Z,26.13
2019-05-21T22:03:11.548Z,26.03
2019-05-21T22:05:42.754Z,25.53
2019-05-21T22:08:14.318Z,24.47
2019-05-21T22:10:46.001Z,25.63
2019-05-21T22:13:18.621Z,23.70
2019-05-21T22:15:49.739Z,24.70
2019-05-21T22:18:20.979Z,24.47
2019-05-21T22:20:52.365Z,24.27
2019-05-21T22:23:23.541Z,23.73
2019-05-21T22:25:54.798Z,23.53
2019-05-21T22:28:25.867Z,22.93
2019-05-21T22:30:57.489Z,23.73
2019-05-21T22:33:29.138Z,24.20
2019-05-21T22:36:00.490Z,24.50
2019-05-21T22:38:32.893Z,27.93
2019-05-21T22:41:03.995Z,31.17
2019-05-21T22:43:35.348Z,31.27
2019-05-21T22:46:06.456Z,32.23
2019-05-21T22:48:37.936Z,33.73
2019-05-21T22:51:09.230Z,31.65
2019-05-21T22:53:40.987Z,31.47
2019-05-21T22:56:12.011Z,29.97
2019-05-21T22:58:42.977Z,30.17
2019-05-21T23:01:15.909Z,29.20
2019-05-21T23:03:47.186Z,29.47
2019-05-21T23:06:18.508Z,28.23
2019-05-21T23:08:49.607Z,27.57
2019-05-21T23:11:23.023Z,28.23
2019-05-21T23:13:53.461Z,27.50
2019-05-21T23:16:25.808Z,26.70
2019-05-21T23:19:11.666Z,27.82
2019-05-21T23:21:46.348Z,26.90
2019-05-21T23:24:22.135Z,29.98
2019-05-21T23:26:53.808Z,29.90
2019-05-21T23:29:25.771Z,27.77
2019-05-21T23:31:56.862Z,29.23
2019-05-21T23:34:29.277Z,27.40
2019-05-21T23:37:02.456Z,27.33
2019-05-21T23:39:34.865Z,27.53
2019-05-21T23:42:08.671Z,27.23
2019-05-21T23:44:41.190Z,27.67
2019-05-21T23:47:15.297Z,25.97
2019-05-21T23:49:46.573Z,27.30
2019-05-21T23:52:17.714Z,27.67
2019-05-21T23:54:48.828Z,27.40
2019-05-21T23:57:27.215Z,26.47
2019-05-21T23:59:58.289Z,26.40
